Aviation Digital Data Service (ADDS)

Output produced by METARs form (2114 UTC 25 February 2018)
found at http://aviationweather.gov/adds/metars/
 
TAF RPLC 251700Z 2518/2624 06006KT 9999 FEW020 BKN300 TX33/2606Z TN24/2521Z 
     TEMPO 2518/2524 28008KT SCT020 BKN300